Clio, California
Current Conditions -  °F | °C
As of 2:52 PM on Friday 19 Dec 2014 (Local Time) from KBLU Reporting Station
Light Rain Light Rain  
Wind Chill: 31°   Ceiling: 2300
Heat Index: 36°   Visibility: 8mi
Dew Point: 32°   Wind: 6mph
Humidity: 86%   Direction: 140°SE
Pressure: 30.15"   Gusts: NA
Location:  39.74°N, 120.58°W
Report Text: KBLU 192252Z AUTO 14005KT 8SM -RA FEW017 OVC023 02/00 A3015 RMK AO2 SLP206 P0004 T00220000
Loading
Personal Weather Stations






























Interactive Weather Map New forecast layout! Learn more

10-Day Weather Forecast

Advertisements
Track Severe Weather on mobile